Aviation Digital Data Service (ADDS)

Output produced by METARs form (1428 UTC 22 April 2019)
found at http://www.aviationweather.gov/metar/data/
 
Forecast for: SCDA (IQUIQUE/DIEGO AR, CL)
Text: TAF SCDA 221008Z 2212/2312 16004KT CAVOK TX22/2218Z TN17/2306Z
Forecast period: 1200 to 1400 UTC 22 April 2019
Forecast type: FROM: standard forecast or significant change
Winds: from the SSE (160 degrees) at 5 MPH (4 knots; 2.1 m/s)
Visibility: 6 or more miles 10+ km)
Ceiling: unknown
Clouds: missing
Weather: no significant weather forecast for this period
Text: BECMG 2214/2216 21014KT
Forecast period: 1400 UTC 22 April 2019 to 0400 UTC 23 April 2019
Forecast type: BECOMING: Conditions expected to become as follows by 1600 UTC 22 April 2019
Winds: from the SSW (210 degrees) at 16 MPH (14 knots; 7.2 m/s)
Visibility: 6 or more miles 10+ km)
Ceiling: unknown
Clouds: missing
Weather: no significant weather forecast for this period
Text: BECMG 2304/2306 08004KT
Forecast period: 0400 to 1200 UTC 23 April 2019
Forecast type: BECOMING: Conditions expected to become as follows by 0600 UTC 23 April 2019
Winds: from the E (80 degrees) at 5 MPH (4 knots; 2.1 m/s)
Visibility: 6 or more miles 10+ km)
Ceiling: unknown
Clouds: missing
Weather: no significant weather forecast for this period